Naples, FL

9:06 PM EDT on July 28, 2016 (GMT -0400)
Naples Municipal | | Change Station

Elev 10 ft 26.16 °N, 81.77 °W | Updated 3 minutes ago

Heavy Rain
Heavy Rain
79 °F
Feels Like 79 °F
N
8
Wind Variable Wind from SSE

Today
High -- | Low -- °F
--% Chance of Precip.
Yesterday
High -- | Low -- °F
Precip. -- in
Pressure 30.04 in
Visibility 4.0 miles
Clouds Few 2600 ft
Mostly Cloudy 3800 ft
Overcast 4800 ft
Dew Point 72 °F
Humidity 79%
Rainfall 0.04 in
Snow Depth Not available.
6:51 AM 8:15 PM
Waning Crescent, 27% visible
SPECI KAPF 290103Z 16007KT 4SM VCTS +RA FEW026 BKN038 OVC048 26/22 A3004 RMK AO2 LTG DSNT SE RAB0059 P0004 T02610222
Pressure 30.04 in
Visibility 4.0 miles
Clouds Few 2600 ft
Mostly Cloudy 3800 ft
Overcast 4800 ft
Dew Point 72 °F
Humidity 79%
Rainfall 0.04 in
Snow Depth Not available.
6:51 AM 8:15 PM
Waning Crescent, 27% visible
SPECI KAPF 290103Z 16007KT 4SM VCTS +RA FEW026 BKN038 OVC048 26/22 A3004 RMK AO2 LTG DSNT SE RAB0059 P0004 T02610222

10-Day Weather Forecast

Almanac

Astronomy

Jul. 28, 2016 Rise Set
Actual Time
Civil Twilight
Nautical Twilight
Astronomical Twilight
Moon
Length of Visible Light
Length of Day
Tomorrow will be .
, % of the Moon is Illuminated

Today's Extremes

State Highs State Lows

Community

WunderPhotos

Upload Photos

1,928,242 photos uploaded!

WunderBlog® & News

Nearby

Air Quality

  Air Quality AQ Index Pollutant
Not available.

Snow Depth

Station Depth Elevation

Earthquake Activity

City Distance Mag. Time & Date
Minimum magnitude displayed is 2.5.

Coastal Water Temperatures

Place Temperature

Stations

Nearby Weather Stations

Station Location Temp. Windchill Dew Point Humidity Wind Precip. Elev Updated Type
                   

Watches & Warnings

There are currently no watches in effect.